sensor_id;sensor_type;location;lat;lon;timestamp;P1;durP1;ratioP1;P2;durP2;ratioP2
37455;SDS011;23316;50.718;7.328;2023-04-24T00:02:00;0.40;;;0.40;;
37455;SDS011;23316;50.718;7.328;2023-04-24T00:04:29;0.32;;;0.32;;
37455;SDS011;23316;50.718;7.328;2023-04-24T00:06:57;1.58;;;0.20;;
37455;SDS011;23316;50.718;7.328;2023-04-24T00:09:25;0.40;;;0.22;;
37455;SDS011;23316;50.718;7.328;2023-04-24T00:11:54;2.42;;;0.25;;
37455;SDS011;23316;50.718;7.328;2023-04-24T00:14:21;0.63;;;0.20;;
37455;SDS011;23316;50.718;7.328;2023-04-24T00:16:48;0.52;;;0.30;;
37455;SDS011;23316;50.718;7.328;2023-04-24T00:19:16;0.43;;;0.32;;
37455;SDS011;23316;50.718;7.328;2023-04-24T00:21:46;1.00;;;0.28;;
37455;SDS011;23316;50.718;7.328;2023-04-24T00:24:15;2.72;;;0.20;;
37455;SDS011;23316;50.718;7.328;2023-04-24T00:26:42;0.50;;;0.20;;
37455;SDS011;23316;50.718;7.328;2023-04-24T00:29:11;1.27;;;0.20;;
37455;SDS011;23316;50.718;7.328;2023-04-24T00:31:39;0.20;;;0.20;;
37455;SDS011;23316;50.718;7.328;2023-04-24T00:34:06;0.30;;;0.20;;
37455;SDS011;23316;50.718;7.328;2023-04-24T00:36:33;0.30;;;0.20;;
37455;SDS011;23316;50.718;7.328;2023-04-24T00:39:01;0.88;;;0.15;;
37455;SDS011;23316;50.718;7.328;2023-04-24T00:41:28;0.25;;;0.20;;
37455;SDS011;23316;50.718;7.328;2023-04-24T00:43:56;0.47;;;0.20;;
37455;SDS011;23316;50.718;7.328;2023-04-24T00:46:25;0.40;;;0.20;;
37455;SDS011;23316;50.718;7.328;2023-04-24T00:48:52;2.45;;;0.45;;
37455;SDS011;23316;50.718;7.328;2023-04-24T00:51:20;0.50;;;0.20;;
37455;SDS011;23316;50.718;7.328;2023-04-24T00:53:47;0.20;;;0.20;;
37455;SDS011;23316;50.718;7.328;2023-04-24T00:56:14;2.28;;;0.20;;
37455;SDS011;23316;50.718;7.328;2023-04-24T00:58:41;1.15;;;0.30;;
37455;SDS011;23316;50.718;7.328;2023-04-24T01:01:09;0.10;;;0.05;;
37455;SDS011;23316;50.718;7.328;2023-04-24T01:03:38;0.90;;;0.28;;
37455;SDS011;23316;50.718;7.328;2023-04-24T01:06:06;0.40;;;0.20;;
37455;SDS011;23316;50.718;7.328;2023-04-24T01:08:34;1.25;;;0.10;;
37455;SDS011;23316;50.718;7.328;2023-04-24T01:11:04;0.55;;;0.20;;
37455;SDS011;23316;50.718;7.328;2023-04-24T01:13:31;2.53;;;0.25;;
37455;SDS011;23316;50.718;7.328;2023-04-24T01:15:59;0.30;;;0.20;;
37455;SDS011;23316;50.718;7.328;2023-04-24T01:18:27;2.55;;;0.20;;
37455;SDS011;23316;50.718;7.328;2023-04-24T01:20:57;0.85;;;0.30;;
37455;SDS011;23316;50.718;7.328;2023-04-24T01:23:27;0.47;;;0.20;;
37455;SDS011;23316;50.718;7.328;2023-04-24T01:25:55;0.75;;;0.20;;
37455;SDS011;23316;50.718;7.328;2023-04-24T01:28:22;0.50;;;0.20;;
37455;SDS011;23316;50.718;7.328;2023-04-24T01:30:49;0.80;;;0.40;;
37455;SDS011;23316;50.718;7.328;2023-04-24T01:33:17;0.65;;;0.28;;
37455;SDS011;23316;50.718;7.328;2023-04-24T01:35:46;0.20;;;0.13;;
37455;SDS011;23316;50.718;7.328;2023-04-24T01:38:13;0.30;;;0.22;;
37455;SDS011;23316;50.718;7.328;2023-04-24T01:40:42;0.20;;;0.20;;
37455;SDS011;23316;50.718;7.328;2023-04-24T01:43:10;0.30;;;0.20;;
37455;SDS011;23316;50.718;7.328;2023-04-24T01:45:38;0.22;;;0.22;;
37455;SDS011;23316;50.718;7.328;2023-04-24T01:48:05;0.95;;;0.40;;
37455;SDS011;23316;50.718;7.328;2023-04-24T01:50:33;0.60;;;0.40;;
37455;SDS011;23316;50.718;7.328;2023-04-24T01:53:00;0.63;;;0.55;;
37455;SDS011;23316;50.718;7.328;2023-04-24T01:55:27;3.05;;;1.10;;
37455;SDS011;23316;50.718;7.328;2023-04-24T01:57:56;1.13;;;0.88;;
37455;SDS011;23316;50.718;7.328;2023-04-24T02:00:26;1.13;;;0.70;;
37455;SDS011;23316;50.718;7.328;2023-04-24T02:02:53;0.82;;;0.80;;
37455;SDS011;23316;50.718;7.328;2023-04-24T02:05:20;1.80;;;0.90;;
37455;SDS011;23316;50.718;7.328;2023-04-24T02:07:47;3.03;;;1.25;;
37455;SDS011;23316;50.718;7.328;2023-04-24T02:10:15;1.10;;;0.98;;
37455;SDS011;23316;50.718;7.328;2023-04-24T02:12:42;2.10;;;1.10;;
37455;SDS011;23316;50.718;7.328;2023-04-24T02:15:11;2.25;;;0.90;;
37455;SDS011;23316;50.718;7.328;2023-04-24T02:17:38;2.03;;;1.30;;
37455;SDS011;23316;50.718;7.328;2023-04-24T02:20:06;1.75;;;1.20;;
37455;SDS011;23316;50.718;7.328;2023-04-24T02:22:34;2.13;;;1.30;;
37455;SDS011;23316;50.718;7.328;2023-04-24T02:25:01;2.30;;;1.30;;
37455;SDS011;23316;50.718;7.328;2023-04-24T02:27:32;2.38;;;1.60;;
37455;SDS011;23316;50.718;7.328;2023-04-24T02:30:01;2.90;;;1.80;;
37455;SDS011;23316;50.718;7.328;2023-04-24T02:32:30;3.85;;;1.73;;
37455;SDS011;23316;50.718;7.328;2023-04-24T02:34:58;2.03;;;1.70;;
37455;SDS011;23316;50.718;7.328;2023-04-24T02:37:25;2.78;;;1.50;;
37455;SDS011;23316;50.718;7.328;2023-04-24T02:39:52;1.40;;;1.27;;
37455;SDS011;23316;50.718;7.328;2023-04-24T02:42:19;2.95;;;1.40;;
37455;SDS011;23316;50.718;7.328;2023-04-24T02:44:47;5.97;;;3.13;;
37455;SDS011;23316;50.718;7.328;2023-04-24T02:47:14;3.53;;;1.80;;
37455;SDS011;23316;50.718;7.328;2023-04-24T02:49:42;2.00;;;1.63;;
37455;SDS011;23316;50.718;7.328;2023-04-24T02:52:11;2.13;;;1.48;;
37455;SDS011;23316;50.718;7.328;2023-04-24T02:54:38;1.77;;;1.42;;
37455;SDS011;23316;50.718;7.328;2023-04-24T02:57:06;4.53;;;2.25;;
37455;SDS011;23316;50.718;7.328;2023-04-24T02:59:33;2.28;;;1.80;;
37455;SDS011;23316;50.718;7.328;2023-04-24T03:02:00;3.80;;;1.92;;
37455;SDS011;23316;50.718;7.328;2023-04-24T03:04:27;4.47;;;2.72;;
37455;SDS011;23316;50.718;7.328;2023-04-24T03:06:56;3.72;;;2.40;;
37455;SDS011;23316;50.718;7.328;2023-04-24T03:09:24;3.22;;;2.35;;
37455;SDS011;23316;50.718;7.328;2023-04-24T03:11:51;4.22;;;2.55;;
37455;SDS011;23316;50.718;7.328;2023-04-24T03:14:18;6.72;;;2.75;;
37455;SDS011;23316;50.718;7.328;2023-04-24T03:16:46;3.25;;;2.38;;
37455;SDS011;23316;50.718;7.328;2023-04-24T03:19:13;4.28;;;2.33;;
37455;SDS011;23316;50.718;7.328;2023-04-24T03:21:40;3.47;;;2.80;;
37455;SDS011;23316;50.718;7.328;2023-04-24T03:24:09;5.20;;;2.80;;
37455;SDS011;23316;50.718;7.328;2023-04-24T03:26:36;4.00;;;2.90;;
37455;SDS011;23316;50.718;7.328;2023-04-24T03:29:04;5.13;;;3.03;;
37455;SDS011;23316;50.718;7.328;2023-04-24T03:31:32;5.68;;;3.15;;
37455;SDS011;23316;50.718;7.328;2023-04-24T03:34:01;4.20;;;2.95;;
37455;SDS011;23316;50.718;7.328;2023-04-24T03:36:28;3.85;;;2.58;;
37455;SDS011;23316;50.718;7.328;2023-04-24T03:38:56;5.57;;;2.92;;
37455;SDS011;23316;50.718;7.328;2023-04-24T03:41:25;4.65;;;3.10;;
37455;SDS011;23316;50.718;7.328;2023-04-24T03:43:52;5.13;;;3.03;;
37455;SDS011;23316;50.718;7.328;2023-04-24T03:46:19;4.10;;;2.92;;
37455;SDS011;23316;50.718;7.328;2023-04-24T03:48:46;5.03;;;3.38;;
37455;SDS011;23316;50.718;7.328;2023-04-24T03:51:14;8.98;;;3.60;;
37455;SDS011;23316;50.718;7.328;2023-04-24T03:53:41;5.63;;;3.22;;
37455;SDS011;23316;50.718;7.328;2023-04-24T03:56:09;5.10;;;3.03;;
37455;SDS011;23316;50.718;7.328;2023-04-24T03:58:39;7.25;;;3.35;;
37455;SDS011;23316;50.718;7.328;2023-04-24T04:01:06;4.65;;;3.15;;
37455;SDS011;23316;50.718;7.328;2023-04-24T04:03:37;4.22;;;3.10;;
37455;SDS011;23316;50.718;7.328;2023-04-24T04:06:04;4.22;;;3.08;;
37455;SDS011;23316;50.718;7.328;2023-04-24T04:08:31;4.13;;;2.90;;
37455;SDS011;23316;50.718;7.328;2023-04-24T04:10:59;5.22;;;3.40;;
37455;SDS011;23316;50.718;7.328;2023-04-24T04:13:26;5.57;;;2.92;;
37455;SDS011;23316;50.718;7.328;2023-04-24T04:15:55;5.90;;;3.40;;
37455;SDS011;23316;50.718;7.328;2023-04-24T04:18:22;4.70;;;3.35;;
37455;SDS011;23316;50.718;7.328;2023-04-24T04:20:49;3.13;;;2.50;;
37455;SDS011;23316;50.718;7.328;2023-04-24T04:23:17;3.97;;;3.00;;
37455;SDS011;23316;50.718;7.328;2023-04-24T04:25:44;6.05;;;3.53;;
37455;SDS011;23316;50.718;7.328;2023-04-24T04:28:12;6.47;;;3.80;;
37455;SDS011;23316;50.718;7.328;2023-04-24T04:30:40;5.95;;;3.60;;
37455;SDS011;23316;50.718;7.328;2023-04-24T04:33:09;8.70;;;4.63;;
37455;SDS011;23316;50.718;7.328;2023-04-24T04:35:40;5.20;;;3.70;;
37455;SDS011;23316;50.718;7.328;2023-04-24T04:38:10;4.65;;;3.00;;
37455;SDS011;23316;50.718;7.328;2023-04-24T04:40:37;4.70;;;3.05;;
37455;SDS011;23316;50.718;7.328;2023-04-24T04:43:05;4.60;;;3.15;;
37455;SDS011;23316;50.718;7.328;2023-04-24T04:45:32;5.43;;;2.60;;
37455;SDS011;23316;50.718;7.328;2023-04-24T04:48:02;4.15;;;2.85;;
37455;SDS011;23316;50.718;7.328;2023-04-24T04:50:31;5.10;;;3.63;;
37455;SDS011;23316;50.718;7.328;2023-04-24T04:52:58;4.68;;;3.20;;
37455;SDS011;23316;50.718;7.328;2023-04-24T04:55:25;6.00;;;3.33;;
37455;SDS011;23316;50.718;7.328;2023-04-24T04:57:52;6.75;;;3.03;;
37455;SDS011;23316;50.718;7.328;2023-04-24T05:00:21;5.32;;;3.17;;
37455;SDS011;23316;50.718;7.328;2023-04-24T05:02:49;8.85;;;3.50;;
37455;SDS011;23316;50.718;7.328;2023-04-24T05:05:18;4.47;;;3.40;;
37455;SDS011;23316;50.718;7.328;2023-04-24T05:08:12;7.38;;;3.53;;
37455;SDS011;23316;50.718;7.328;2023-04-24T05:13:40;7.30;;;3.38;;
37455;SDS011;23316;50.718;7.328;2023-04-24T05:16:10;5.05;;;2.50;;
37455;SDS011;23316;50.718;7.328;2023-04-24T05:18:39;3.35;;;2.58;;
37455;SDS011;23316;50.718;7.328;2023-04-24T05:21:07;3.90;;;3.13;;
37455;SDS011;23316;50.718;7.328;2023-04-24T05:23:36;4.65;;;2.85;;
37455;SDS011;23316;50.718;7.328;2023-04-24T05:26:04;7.43;;;3.70;;
37455;SDS011;23316;50.718;7.328;2023-04-24T05:28:31;6.70;;;2.92;;
37455;SDS011;23316;50.718;7.328;2023-04-24T05:30:59;7.28;;;3.03;;
37455;SDS011;23316;50.718;7.328;2023-04-24T05:33:26;8.52;;;3.30;;
37455;SDS011;23316;50.718;7.328;2023-04-24T05:35:53;4.35;;;2.90;;
37455;SDS011;23316;50.718;7.328;2023-04-24T05:38:20;6.28;;;3.38;;
37455;SDS011;23316;50.718;7.328;2023-04-24T05:40:49;9.18;;;4.38;;
37455;SDS011;23316;50.718;7.328;2023-04-24T05:43:16;10.00;;;4.68;;
37455;SDS011;23316;50.718;7.328;2023-04-24T05:45:43;8.30;;;4.40;;
37455;SDS011;23316;50.718;7.328;2023-04-24T05:48:13;8.23;;;4.85;;
37455;SDS011;23316;50.718;7.328;2023-04-24T05:50:43;10.63;;;5.50;;
37455;SDS011;23316;50.718;7.328;2023-04-24T05:53:12;7.00;;;4.25;;
37455;SDS011;23316;50.718;7.328;2023-04-24T05:55:41;9.30;;;4.22;;
37455;SDS011;23316;50.718;7.328;2023-04-24T05:58:10;7.35;;;3.70;;
37455;SDS011;23316;50.718;7.328;2023-04-24T06:00:37;9.50;;;4.13;;
37455;SDS011;23316;50.718;7.328;2023-04-24T06:03:07;5.35;;;3.72;;
37455;SDS011;23316;50.718;7.328;2023-04-24T06:05:35;6.07;;;3.58;;
37455;SDS011;23316;50.718;7.328;2023-04-24T06:08:02;5.25;;;3.72;;
37455;SDS011;23316;50.718;7.328;2023-04-24T06:10:29;7.50;;;4.00;;
37455;SDS011;23316;50.718;7.328;2023-04-24T06:12:57;5.90;;;3.70;;
37455;SDS011;23316;50.718;7.328;2023-04-24T06:15:30;7.43;;;3.75;;
37455;SDS011;23316;50.718;7.328;2023-04-24T06:17:59;6.72;;;4.40;;
37455;SDS011;23316;50.718;7.328;2023-04-24T06:20:28;7.20;;;4.28;;
37455;SDS011;23316;50.718;7.328;2023-04-24T06:22:56;6.47;;;3.80;;
37455;SDS011;23316;50.718;7.328;2023-04-24T06:25:24;6.10;;;3.72;;
37455;SDS011;23316;50.718;7.328;2023-04-24T06:27:55;7.30;;;3.60;;
37455;SDS011;23316;50.718;7.328;2023-04-24T06:30:23;6.70;;;4.20;;
37455;SDS011;23316;50.718;7.328;2023-04-24T06:32:52;6.43;;;4.10;;
37455;SDS011;23316;50.718;7.328;2023-04-24T06:35:21;7.10;;;3.75;;
37455;SDS011;23316;50.718;7.328;2023-04-24T06:37:49;6.13;;;3.78;;
37455;SDS011;23316;50.718;7.328;2023-04-24T06:40:16;8.70;;;4.20;;
37455;SDS011;23316;50.718;7.328;2023-04-24T06:42:45;6.53;;;4.40;;
37455;SDS011;23316;50.718;7.328;2023-04-24T06:45:13;5.93;;;3.85;;
37455;SDS011;23316;50.718;7.328;2023-04-24T06:47:41;7.55;;;4.88;;
37455;SDS011;23316;50.718;7.328;2023-04-24T06:50:12;4.18;;;3.30;;
37455;SDS011;23316;50.718;7.328;2023-04-24T06:52:40;9.10;;;4.43;;
37455;SDS011;23316;50.718;7.328;2023-04-24T06:55:09;5.95;;;4.05;;
37455;SDS011;23316;50.718;7.328;2023-04-24T06:57:37;7.03;;;4.18;;
37455;SDS011;23316;50.718;7.328;2023-04-24T07:00:06;5.07;;;3.72;;
37455;SDS011;23316;50.718;7.328;2023-04-24T07:02:34;7.40;;;4.60;;
37455;SDS011;23316;50.718;7.328;2023-04-24T07:05:03;6.97;;;4.53;;
37455;SDS011;23316;50.718;7.328;2023-04-24T07:07:31;5.57;;;3.92;;
37455;SDS011;23316;50.718;7.328;2023-04-24T07:09:59;4.97;;;4.03;;
37455;SDS011;23316;50.718;7.328;2023-04-24T07:12:27;7.07;;;4.07;;
37455;SDS011;23316;50.718;7.328;2023-04-24T07:14:54;4.35;;;3.47;;
37455;SDS011;23316;50.718;7.328;2023-04-24T07:17:21;5.68;;;3.67;;
37455;SDS011;23316;50.718;7.328;2023-04-24T07:19:48;6.07;;;3.85;;
37455;SDS011;23316;50.718;7.328;2023-04-24T07:22:15;5.85;;;4.32;;
37455;SDS011;23316;50.718;7.328;2023-04-24T07:24:44;5.97;;;4.00;;
37455;SDS011;23316;50.718;7.328;2023-04-24T07:27:11;6.32;;;3.90;;
37455;SDS011;23316;50.718;7.328;2023-04-24T07:29:40;6.30;;;4.05;;
37455;SDS011;23316;50.718;7.328;2023-04-24T07:32:10;9.95;;;4.70;;
37455;SDS011;23316;50.718;7.328;2023-04-24T07:34:37;7.38;;;5.40;;
37455;SDS011;23316;50.718;7.328;2023-04-24T07:37:04;7.55;;;5.03;;
37455;SDS011;23316;50.718;7.328;2023-04-24T07:39:31;12.63;;;5.93;;
37455;SDS011;23316;50.718;7.328;2023-04-24T07:42:00;8.18;;;4.50;;
37455;SDS011;23316;50.718;7.328;2023-04-24T07:44:27;9.55;;;6.22;;
37455;SDS011;23316;50.718;7.328;2023-04-24T07:46:55;8.27;;;6.18;;
37455;SDS011;23316;50.718;7.328;2023-04-24T07:49:22;7.97;;;4.72;;
37455;SDS011;23316;50.718;7.328;2023-04-24T07:51:50;7.72;;;5.10;;
37455;SDS011;23316;50.718;7.328;2023-04-24T07:54:17;8.57;;;4.63;;
37455;SDS011;23316;50.718;7.328;2023-04-24T07:56:44;7.22;;;4.28;;
37455;SDS011;23316;50.718;7.328;2023-04-24T07:59:13;8.73;;;5.32;;
37455;SDS011;23316;50.718;7.328;2023-04-24T08:01:40;7.78;;;5.55;;
37455;SDS011;23316;50.718;7.328;2023-04-24T08:04:08;5.40;;;3.97;;
37455;SDS011;23316;50.718;7.328;2023-04-24T08:06:35;5.47;;;3.53;;
37455;SDS011;23316;50.718;7.328;2023-04-24T08:09:03;5.00;;;3.05;;
37455;SDS011;23316;50.718;7.328;2023-04-24T08:11:31;4.47;;;3.55;;
37455;SDS011;23316;50.718;7.328;2023-04-24T08:13:59;3.13;;;2.45;;
37455;SDS011;23316;50.718;7.328;2023-04-24T08:16:28;2.75;;;2.28;;
37455;SDS011;23316;50.718;7.328;2023-04-24T08:18:56;1.50;;;1.40;;
37455;SDS011;23316;50.718;7.328;2023-04-24T08:21:23;3.35;;;1.35;;
37455;SDS011;23316;50.718;7.328;2023-04-24T08:23:52;0.85;;;0.75;;
37455;SDS011;23316;50.718;7.328;2023-04-24T08:26:20;1.83;;;1.00;;
37455;SDS011;23316;50.718;7.328;2023-04-24T08:28:50;1.25;;;0.90;;
37455;SDS011;23316;50.718;7.328;2023-04-24T08:31:17;2.45;;;0.93;;
37455;SDS011;23316;50.718;7.328;2023-04-24T08:33:47;0.90;;;0.80;;
37455;SDS011;23316;50.718;7.328;2023-04-24T08:36:14;1.63;;;0.82;;
37455;SDS011;23316;50.718;7.328;2023-04-24T08:38:45;1.73;;;0.93;;
37455;SDS011;23316;50.718;7.328;2023-04-24T08:41:13;1.75;;;1.08;;
37455;SDS011;23316;50.718;7.328;2023-04-24T08:43:42;4.50;;;2.40;;
37455;SDS011;23316;50.718;7.328;2023-04-24T08:46:10;2.35;;;1.38;;
37455;SDS011;23316;50.718;7.328;2023-04-24T08:48:40;3.20;;;1.30;;
37455;SDS011;23316;50.718;7.328;2023-04-24T08:51:09;1.55;;;0.82;;
37455;SDS011;23316;50.718;7.328;2023-04-24T08:53:37;1.17;;;0.85;;
37455;SDS011;23316;50.718;7.328;2023-04-24T08:56:05;1.27;;;0.60;;
37455;SDS011;23316;50.718;7.328;2023-04-24T08:58:34;1.40;;;0.63;;
37455;SDS011;23316;50.718;7.328;2023-04-24T09:01:02;1.02;;;0.70;;
37455;SDS011;23316;50.718;7.328;2023-04-24T09:03:31;1.10;;;0.60;;
37455;SDS011;23316;50.718;7.328;2023-04-24T09:05:59;3.17;;;0.50;;
37455;SDS011;23316;50.718;7.328;2023-04-24T09:08:28;0.60;;;0.47;;
37455;SDS011;23316;50.718;7.328;2023-04-24T09:10:57;1.00;;;0.70;;
37455;SDS011;23316;50.718;7.328;2023-04-24T09:13:27;3.22;;;0.77;;
37455;SDS011;23316;50.718;7.328;2023-04-24T09:15:54;1.48;;;1.02;;
37455;SDS011;23316;50.718;7.328;2023-04-24T09:18:22;4.18;;;1.25;;
37455;SDS011;23316;50.718;7.328;2023-04-24T09:21:00;4.00;;;1.08;;
37455;SDS011;23316;50.718;7.328;2023-04-24T09:23:29;3.47;;;1.60;;
37455;SDS011;23316;50.718;7.328;2023-04-24T09:25:58;3.00;;;1.38;;
37455;SDS011;23316;50.718;7.328;2023-04-24T09:28:27;2.13;;;1.60;;
37455;SDS011;23316;50.718;7.328;2023-04-24T09:31:02;2.63;;;1.50;;
37455;SDS011;23316;50.718;7.328;2023-04-24T09:33:34;3.30;;;1.95;;
37455;SDS011;23316;50.718;7.328;2023-04-24T09:36:01;2.88;;;1.73;;
37455;SDS011;23316;50.718;7.328;2023-04-24T09:38:33;2.00;;;1.77;;
37455;SDS011;23316;50.718;7.328;2023-04-24T09:41:02;2.47;;;1.85;;
37455;SDS011;23316;50.718;7.328;2023-04-24T09:43:32;4.28;;;2.10;;
37455;SDS011;23316;50.718;7.328;2023-04-24T09:46:03;5.68;;;2.90;;
37455;SDS011;23316;50.718;7.328;2023-04-24T09:48:31;4.18;;;2.50;;
37455;SDS011;23316;50.718;7.328;2023-04-24T09:51:00;4.47;;;2.40;;
37455;SDS011;23316;50.718;7.328;2023-04-24T09:53:29;6.20;;;2.70;;
37455;SDS011;23316;50.718;7.328;2023-04-24T09:56:00;4.63;;;2.60;;
37455;SDS011;23316;50.718;7.328;2023-04-24T09:58:29;3.65;;;2.40;;
37455;SDS011;23316;50.718;7.328;2023-04-24T10:00:56;4.82;;;2.78;;
37455;SDS011;23316;50.718;7.328;2023-04-24T10:03:24;4.38;;;2.45;;
37455;SDS011;23316;50.718;7.328;2023-04-24T10:05:52;6.18;;;2.47;;
37455;SDS011;23316;50.718;7.328;2023-04-24T10:08:20;3.25;;;2.17;;
37455;SDS011;23316;50.718;7.328;2023-04-24T10:10:48;4.05;;;2.30;;
37455;SDS011;23316;50.718;7.328;2023-04-24T10:13:16;4.60;;;2.42;;
37455;SDS011;23316;50.718;7.328;2023-04-24T10:15:43;6.03;;;2.30;;
37455;SDS011;23316;50.718;7.328;2023-04-24T10:18:11;4.53;;;2.38;;
37455;SDS011;23316;50.718;7.328;2023-04-24T10:20:38;5.03;;;2.67;;
37455;SDS011;23316;50.718;7.328;2023-04-24T10:23:06;7.28;;;2.58;;
37455;SDS011;23316;50.718;7.328;2023-04-24T10:25:34;4.55;;;2.70;;
37455;SDS011;23316;50.718;7.328;2023-04-24T10:28:03;5.05;;;3.17;;
37455;SDS011;23316;50.718;7.328;2023-04-24T10:30:33;4.70;;;2.75;;
37455;SDS011;23316;50.718;7.328;2023-04-24T10:33:01;4.40;;;2.83;;
37455;SDS011;23316;50.718;7.328;2023-04-24T10:35:30;5.72;;;3.15;;
37455;SDS011;23316;50.718;7.328;2023-04-24T10:37:59;4.28;;;2.78;;
37455;SDS011;23316;50.718;7.328;2023-04-24T10:40:33;4.35;;;2.80;;
37455;SDS011;23316;50.718;7.328;2023-04-24T10:43:02;5.00;;;2.88;;
37455;SDS011;23316;50.718;7.328;2023-04-24T10:45:32;5.13;;;2.70;;
37455;SDS011;23316;50.718;7.328;2023-04-24T10:48:01;5.90;;;2.85;;
37455;SDS011;23316;50.718;7.328;2023-04-24T10:50:29;4.72;;;3.00;;
37455;SDS011;23316;50.718;7.328;2023-04-24T10:53:11;7.57;;;3.15;;
37455;SDS011;23316;50.718;7.328;2023-04-24T10:55:44;6.90;;;3.58;;
37455;SDS011;23316;50.718;7.328;2023-04-24T10:58:12;4.13;;;3.00;;
37455;SDS011;23316;50.718;7.328;2023-04-24T11:00:42;5.97;;;3.17;;
37455;SDS011;23316;50.718;7.328;2023-04-24T11:03:22;4.75;;;3.03;;
37455;SDS011;23316;50.718;7.328;2023-04-24T11:05:52;6.50;;;3.40;;
37455;SDS011;23316;50.718;7.328;2023-04-24T11:08:26;5.95;;;3.13;;
37455;SDS011;23316;50.718;7.328;2023-04-24T11:10:55;7.55;;;3.40;;
37455;SDS011;23316;50.718;7.328;2023-04-24T11:13:24;6.35;;;2.95;;
37455;SDS011;23316;50.718;7.328;2023-04-24T11:18:41;9.70;;;4.20;;
37455;SDS011;23316;50.718;7.328;2023-04-24T11:21:11;7.53;;;3.42;;
37455;SDS011;23316;50.718;7.328;2023-04-24T11:23:39;7.50;;;3.83;;
37455;SDS011;23316;50.718;7.328;2023-04-24T11:26:10;9.82;;;4.57;;
37455;SDS011;23316;50.718;7.328;2023-04-24T11:28:43;10.32;;;4.38;;
37455;SDS011;23316;50.718;7.328;2023-04-24T11:34:08;9.65;;;4.97;;
37455;SDS011;23316;50.718;7.328;2023-04-24T11:36:36;11.43;;;5.18;;
37455;SDS011;23316;50.718;7.328;2023-04-24T11:39:03;15.85;;;5.40;;
37455;SDS011;23316;50.718;7.328;2023-04-24T11:41:31;15.10;;;6.28;;
37455;SDS011;23316;50.718;7.328;2023-04-24T11:44:00;12.82;;;6.22;;
37455;SDS011;23316;50.718;7.328;2023-04-24T11:46:29;15.73;;;5.40;;
37455;SDS011;23316;50.718;7.328;2023-04-24T11:48:58;9.25;;;4.93;;
37455;SDS011;23316;50.718;7.328;2023-04-24T11:51:26;15.80;;;6.75;;
37455;SDS011;23316;50.718;7.328;2023-04-24T11:53:54;12.02;;;6.53;;
37455;SDS011;23316;50.718;7.328;2023-04-24T11:56:22;11.10;;;5.90;;
37455;SDS011;23316;50.718;7.328;2023-04-24T11:58:51;12.18;;;6.43;;
37455;SDS011;23316;50.718;7.328;2023-04-24T12:01:20;10.68;;;5.30;;
37455;SDS011;23316;50.718;7.328;2023-04-24T12:03:48;10.40;;;5.43;;
37455;SDS011;23316;50.718;7.328;2023-04-24T12:06:17;9.60;;;5.28;;
37455;SDS011;23316;50.718;7.328;2023-04-24T12:08:46;6.32;;;4.30;;
37455;SDS011;23316;50.718;7.328;2023-04-24T12:11:15;14.45;;;6.47;;
37455;SDS011;23316;50.718;7.328;2023-04-24T12:13:44;17.08;;;6.35;;
37455;SDS011;23316;50.718;7.328;2023-04-24T12:16:12;13.77;;;5.55;;
37455;SDS011;23316;50.718;7.328;2023-04-24T12:18:43;15.18;;;6.35;;
37455;SDS011;23316;50.718;7.328;2023-04-24T12:21:14;9.48;;;5.40;;
37455;SDS011;23316;50.718;7.328;2023-04-24T12:23:44;15.85;;;6.15;;
37455;SDS011;23316;50.718;7.328;2023-04-24T12:26:12;9.02;;;4.97;;
37455;SDS011;23316;50.718;7.328;2023-04-24T12:31:20;12.48;;;5.25;;
37455;SDS011;23316;50.718;7.328;2023-04-24T12:33:54;10.45;;;4.45;;
37455;SDS011;23316;50.718;7.328;2023-04-24T12:36:27;11.50;;;5.55;;
37455;SDS011;23316;50.718;7.328;2023-04-24T12:39:00;10.43;;;4.55;;
37455;SDS011;23316;50.718;7.328;2023-04-24T12:41:53;11.38;;;5.10;;
37455;SDS011;23316;50.718;7.328;2023-04-24T12:44:30;10.43;;;4.97;;
37455;SDS011;23316;50.718;7.328;2023-04-24T12:47:01;10.02;;;4.75;;
37455;SDS011;23316;50.718;7.328;2023-04-24T12:49:29;11.23;;;4.82;;
37455;SDS011;23316;50.718;7.328;2023-04-24T12:51:57;12.82;;;5.65;;
37455;SDS011;23316;50.718;7.328;2023-04-24T12:54:25;10.88;;;5.30;;
37455;SDS011;23316;50.718;7.328;2023-04-24T12:56:58;10.90;;;5.75;;
37455;SDS011;23316;50.718;7.328;2023-04-24T12:59:25;10.60;;;5.68;;
37455;SDS011;23316;50.718;7.328;2023-04-24T13:01:53;12.27;;;5.30;;
37455;SDS011;23316;50.718;7.328;2023-04-24T13:04:20;10.73;;;5.78;;
37455;SDS011;23316;50.718;7.328;2023-04-24T13:06:47;11.00;;;5.38;;
37455;SDS011;23316;50.718;7.328;2023-04-24T13:09:14;12.30;;;5.50;;
37455;SDS011;23316;50.718;7.328;2023-04-24T13:11:43;12.77;;;5.68;;
37455;SDS011;23316;50.718;7.328;2023-04-24T13:14:10;8.95;;;5.70;;
37455;SDS011;23316;50.718;7.328;2023-04-24T13:16:37;10.95;;;5.95;;
37455;SDS011;23316;50.718;7.328;2023-04-24T13:19:04;9.85;;;5.13;;
37455;SDS011;23316;50.718;7.328;2023-04-24T13:21:31;12.00;;;6.22;;
37455;SDS011;23316;50.718;7.328;2023-04-24T13:23:58;12.90;;;6.25;;
37455;SDS011;23316;50.718;7.328;2023-04-24T13:26:26;9.35;;;5.00;;
37455;SDS011;23316;50.718;7.328;2023-04-24T13:28:54;12.40;;;5.97;;
37455;SDS011;23316;50.718;7.328;2023-04-24T13:31:21;12.25;;;5.93;;
37455;SDS011;23316;50.718;7.328;2023-04-24T13:33:49;12.70;;;5.72;;
37455;SDS011;23316;50.718;7.328;2023-04-24T13:36:16;15.38;;;6.18;;
37455;SDS011;23316;50.718;7.328;2023-04-24T13:38:44;12.85;;;6.28;;
37455;SDS011;23316;50.718;7.328;2023-04-24T13:41:11;12.60;;;5.65;;
37455;SDS011;23316;50.718;7.328;2023-04-24T13:43:38;11.15;;;5.40;;
37455;SDS011;23316;50.718;7.328;2023-04-24T13:46:08;10.68;;;4.53;;
37455;SDS011;23316;50.718;7.328;2023-04-24T13:48:35;14.88;;;4.82;;
37455;SDS011;23316;50.718;7.328;2023-04-24T13:51:03;8.40;;;4.95;;
37455;SDS011;23316;50.718;7.328;2023-04-24T13:53:30;11.35;;;5.18;;
37455;SDS011;23316;50.718;7.328;2023-04-24T13:55:58;9.40;;;4.75;;
37455;SDS011;23316;50.718;7.328;2023-04-24T13:58:25;10.07;;;4.57;;
37455;SDS011;23316;50.718;7.328;2023-04-24T14:00:52;9.35;;;5.07;;
37455;SDS011;23316;50.718;7.328;2023-04-24T14:03:21;9.95;;;4.45;;
37455;SDS011;23316;50.718;7.328;2023-04-24T14:05:48;11.88;;;4.15;;
37455;SDS011;23316;50.718;7.328;2023-04-24T14:08:15;10.35;;;4.68;;
37455;SDS011;23316;50.718;7.328;2023-04-24T14:10:42;11.45;;;4.55;;
37455;SDS011;23316;50.718;7.328;2023-04-24T14:13:10;13.18;;;4.95;;
37455;SDS011;23316;50.718;7.328;2023-04-24T14:15:37;16.23;;;5.00;;
37455;SDS011;23316;50.718;7.328;2023-04-24T14:18:05;10.30;;;4.78;;
37455;SDS011;23316;50.718;7.328;2023-04-24T14:20:33;13.57;;;4.75;;
37455;SDS011;23316;50.718;7.328;2023-04-24T14:23:00;15.75;;;5.63;;
37455;SDS011;23316;50.718;7.328;2023-04-24T14:25:28;14.90;;;5.78;;
37455;SDS011;23316;50.718;7.328;2023-04-24T14:27:56;13.18;;;5.45;;
37455;SDS011;23316;50.718;7.328;2023-04-24T14:30:23;14.23;;;6.03;;
37455;SDS011;23316;50.718;7.328;2023-04-24T14:32:50;12.43;;;5.25;;
37455;SDS011;23316;50.718;7.328;2023-04-24T14:35:17;19.52;;;6.60;;
37455;SDS011;23316;50.718;7.328;2023-04-24T14:37:46;13.13;;;5.70;;
37455;SDS011;23316;50.718;7.328;2023-04-24T14:40:13;11.77;;;5.70;;
37455;SDS011;23316;50.718;7.328;2023-04-24T14:42:41;13.23;;;6.38;;
37455;SDS011;23316;50.718;7.328;2023-04-24T14:45:08;12.38;;;5.43;;
37455;SDS011;23316;50.718;7.328;2023-04-24T14:47:36;15.82;;;6.00;;
37455;SDS011;23316;50.718;7.328;2023-04-24T14:50:04;17.77;;;7.03;;
37455;SDS011;23316;50.718;7.328;2023-04-24T14:52:33;15.07;;;6.57;;
37455;SDS011;23316;50.718;7.328;2023-04-24T14:55:03;11.57;;;5.43;;
37455;SDS011;23316;50.718;7.328;2023-04-24T14:57:32;10.05;;;6.03;;
37455;SDS011;23316;50.718;7.328;2023-04-24T15:00:02;10.48;;;5.45;;
37455;SDS011;23316;50.718;7.328;2023-04-24T15:02:32;14.18;;;5.55;;
37455;SDS011;23316;50.718;7.328;2023-04-24T15:05:02;14.05;;;6.45;;